Time;durP1;ratioP1;P1;durP2;ratioP2;P2;SDS_P1;SDS_P2;PMS_P1;PMS_P2;Temp;Humidity;BMP_temperature;BMP_pressure;BME280_temperature;BME280_humidity;BME280_pressure;Samples;Min_cycle;Max_cycle;Signal;HPM_P1;HPM_P2
2024/02/19 00:01:20;;;;;;;1.42;1.10;;;7.20;99.90;;;;;;6062131;23;20023;-82
2024/02/19 00:04:09;;;;;;;1.13;0.90;;;7.20;99.90;;;;;;6039806;23;20100;-80
2024/02/19 00:06:58;;;;;;;2.60;1.20;;;7.30;99.90;;;;;;6070435;23;20375;-78
2024/02/19 00:09:46;;;;;;;1.23;1.13;;;7.20;99.90;;;;;;6069008;23;20032;-78
2024/02/19 00:12:34;;;;;;;0.85;0.85;;;7.20;99.90;;;;;;6073489;23;20025;-79
2024/02/19 00:15:22;;;;;;;0.88;0.85;;;7.30;99.90;;;;;;6087392;23;20014;-80
2024/02/19 00:18:10;;;;;;;1.25;1.15;;;7.30;99.90;;;;;;6078056;23;20030;-82
2024/02/19 00:20:59;;;;;;;1.00;0.90;;;7.30;99.90;;;;;;6037361;23;20026;-80
2024/02/19 00:23:46;;;;;;;1.25;0.93;;;7.30;99.90;;;;;;6068717;23;20439;-81
2024/02/19 00:26:34;;;;;;;0.88;0.85;;;7.30;99.90;;;;;;6060030;23;20214;-80
2024/02/19 00:29:21;;;;;;;0.93;0.93;;;7.30;99.90;;;;;;6041113;23;20031;-79
2024/02/19 00:32:10;;;;;;;1.80;0.95;;;7.30;99.90;;;;;;6062752;23;20027;-81
2024/02/19 00:35:01;;;;;;;1.55;1.13;;;7.30;99.90;;;;;;6062410;23;20035;-79
2024/02/19 00:37:49;;;;;;;1.05;0.77;;;7.30;99.90;;;;;;6061446;23;20497;-80
2024/02/19 00:40:40;;;;;;;1.05;0.90;;;7.20;99.90;;;;;;6064265;23;20029;-79
2024/02/19 00:43:27;;;;;;;1.33;1.20;;;7.20;99.90;;;;;;6072571;23;20823;-82
2024/02/19 00:46:17;;;;;;;2.22;1.90;;;7.20;99.90;;;;;;6060290;23;20054;-79
2024/02/19 00:49:04;;;;;;;2.65;1.30;;;7.20;99.90;;;;;;6039181;23;20503;-79
2024/02/19 00:51:57;;;;;;;1.27;1.00;;;7.20;99.90;;;;;;6060192;23;20037;-78
2024/02/19 00:54:44;;;;;;;0.73;0.73;;;7.20;99.90;;;;;;6046225;23;20030;-78
2024/02/19 00:57:32;;;;;;;1.60;1.30;;;7.20;99.90;;;;;;6072019;23;20030;-79
2024/02/19 01:00:26;;;;;;;1.10;1.10;;;7.20;99.90;;;;;;6054486;23;20022;-79
2024/02/19 01:03:13;;;;;;;1.10;1.05;;;7.20;99.90;;;;;;6047614;23;20049;-82
2024/02/19 01:06:02;;;;;;;1.20;1.10;;;7.20;99.90;;;;;;6060413;23;20034;-81
2024/02/19 01:08:50;;;;;;;1.30;0.88;;;7.20;99.90;;;;;;6038832;23;20037;-81
2024/02/19 01:11:39;;;;;;;0.75;0.75;;;7.20;99.90;;;;;;6040517;23;20450;-79
2024/02/19 01:14:29;;;;;;;0.57;0.57;;;7.20;99.90;;;;;;6040335;23;20031;-80
2024/02/19 01:17:18;;;;;;;0.75;0.75;;;7.20;99.90;;;;;;6059685;23;20038;-81
2024/02/19 01:20:07;;;;;;;0.60;0.60;;;7.20;99.90;;;;;;6059115;23;20106;-79
2024/02/19 01:22:55;;;;;;;0.60;0.60;;;7.20;99.90;;;;;;6058488;23;20105;-80
2024/02/19 01:25:43;;;;;;;0.70;0.70;;;7.10;99.90;;;;;;6060174;23;20129;-80
2024/02/19 01:28:30;;;;;;;0.70;0.70;;;7.10;99.90;;;;;;6057748;23;20027;-80
2024/02/19 01:31:18;;;;;;;0.75;0.70;;;7.10;99.90;;;;;;6060745;23;20489;-80
2024/02/19 01:34:06;;;;;;;0.68;0.68;;;7.10;99.90;;;;;;6049197;23;20031;-78
2024/02/19 01:36:53;;;;;;;0.60;0.60;;;7.10;99.90;;;;;;6038722;23;20042;-79
2024/02/19 01:39:43;;;;;;;0.77;0.77;;;7.10;99.90;;;;;;6038518;23;20027;-81
2024/02/19 01:42:32;;;;;;;0.52;0.52;;;7.10;99.90;;;;;;6050157;23;20046;-80
2024/02/19 01:45:28;;;;;;;1.10;0.70;;;7.10;99.90;;;;;;6070311;23;20027;-78
2024/02/19 01:48:18;;;;;;;0.82;0.60;;;7.10;99.90;;;;;;6053232;23;20031;-78
2024/02/19 01:51:11;;;;;;;1.00;0.60;;;7.10;99.90;;;;;;6070030;23;20137;-79
2024/02/19 01:53:59;;;;;;;1.60;0.70;;;7.20;99.90;;;;;;6069884;23;20034;-79
2024/02/19 01:56:49;;;;;;;1.17;0.60;;;7.20;99.90;;;;;;6061411;23;20237;-81
2024/02/19 01:59:39;;;;;;;0.50;0.50;;;7.20;99.90;;;;;;6061229;23;20082;-78
2024/02/19 02:02:32;;;;;;;2.45;0.60;;;7.20;99.90;;;;;;6038951;23;20023;-81
2024/02/19 02:05:23;;;;;;;0.60;0.60;;;7.20;99.90;;;;;;6059872;23;20023;-81
2024/02/19 02:08:11;;;;;;;0.60;0.60;;;7.20;99.90;;;;;;6039008;23;20030;-80
2024/02/19 02:10:58;;;;;;;0.70;0.70;;;7.20;99.90;;;;;;6058776;23;20157;-82
2024/02/19 02:13:46;;;;;;;0.60;0.60;;;7.20;99.90;;;;;;6055054;23;20035;-77
2024/02/19 02:16:34;;;;;;;0.98;0.90;;;7.20;99.90;;;;;;6067706;23;20196;-79
2024/02/19 02:19:22;;;;;;;0.70;0.70;;;7.20;99.90;;;;;;6060808;23;20023;-78
2024/02/19 02:22:13;;;;;;;0.73;0.70;;;7.20;99.90;;;;;;6040627;23;20023;-78
2024/02/19 02:25:04;;;;;;;0.95;0.80;;;7.20;99.90;;;;;;6038719;23;20416;-82
2024/02/19 02:27:52;;;;;;;5.00;1.08;;;7.20;99.90;;;;;;6056144;23;20051;-80
2024/02/19 02:30:40;;;;;;;1.33;1.00;;;7.20;99.90;;;;;;6038098;23;20027;-79
2024/02/19 02:33:30;;;;;;;1.40;1.10;;;7.20;99.90;;;;;;6065117;23;20034;-81
2024/02/19 02:36:20;;;;;;;1.08;1.00;;;7.30;99.90;;;;;;6077000;23;20106;-82
2024/02/19 02:39:07;;;;;;;1.13;1.02;;;7.30;99.90;;;;;;6064684;23;20081;-82
2024/02/19 02:41:57;;;;;;;3.40;0.90;;;7.20;99.90;;;;;;6043788;23;20374;-81
2024/02/19 02:44:45;;;;;;;2.20;0.88;;;7.20;99.90;;;;;;6064692;23;20474;-80
2024/02/19 02:47:32;;;;;;;4.13;0.98;;;7.20;99.90;;;;;;6060038;23;20054;-82
2024/02/19 02:50:19;;;;;;;1.10;1.00;;;7.20;99.90;;;;;;6062250;23;20034;-81
2024/02/19 02:53:07;;;;;;;1.02;1.02;;;7.20;99.90;;;;;;6061802;23;20045;-80
2024/02/19 02:55:54;;;;;;;4.30;1.23;;;7.20;99.90;;;;;;6063545;23;20482;-81
2024/02/19 02:58:42;;;;;;;2.80;1.10;;;7.20;99.90;;;;;;6040355;23;20055;-82
2024/02/19 03:01:30;;;;;;;1.35;1.00;;;7.20;99.90;;;;;;6063963;23;20042;-81
2024/02/19 03:04:17;;;;;;;1.92;1.08;;;7.10;99.90;;;;;;6062819;23;20029;-81
2024/02/19 03:07:05;;;;;;;2.90;1.27;;;7.10;99.90;;;;;;6067826;23;20046;-81
2024/02/19 03:09:53;;;;;;;2.70;1.45;;;7.10;99.90;;;;;;6079607;23;20037;-79
2024/02/19 03:12:43;;;;;;;2.33;1.67;;;7.10;99.90;;;;;;6092640;23;20022;-78
2024/02/19 03:15:31;;;;;;;2.65;1.90;;;7.10;99.90;;;;;;6043067;23;20023;-82
2024/02/19 03:18:20;;;;;;;3.90;1.45;;;7.10;99.90;;;;;;6072593;23;20653;-81
2024/02/19 03:21:11;;;;;;;2.10;2.00;;;7.10;99.90;;;;;;6050640;23;20113;-81
2024/02/19 03:23:58;;;;;;;2.60;2.40;;;7.10;99.90;;;;;;6065666;23;20046;-82
2024/02/19 03:26:46;;;;;;;3.85;2.28;;;7.10;99.90;;;;;;6059415;23;20058;-81
2024/02/19 03:29:33;;;;;;;2.40;2.15;;;7.10;99.90;;;;;;6060941;23;20382;-82
2024/02/19 03:32:21;;;;;;;2.75;2.55;;;7.10;99.90;;;;;;6065828;23;20027;-81
2024/02/19 03:35:10;;;;;;;3.00;2.80;;;7.10;99.90;;;;;;6063488;23;20045;-82
2024/02/19 03:37:58;;;;;;;3.85;3.50;;;7.10;99.90;;;;;;6062209;23;20035;-82
2024/02/19 03:40:48;;;;;;;4.47;3.13;;;7.10;99.90;;;;;;6060347;23;20195;-82
2024/02/19 03:43:36;;;;;;;4.63;3.10;;;7.10;99.90;;;;;;6061993;23;20058;-82
2024/02/19 03:46:23;;;;;;;3.20;2.90;;;7.10;99.90;;;;;;6061940;23;20033;-82
2024/02/19 03:49:13;;;;;;;7.70;2.70;;;7.10;99.90;;;;;;6039529;23;20037;-80
2024/02/19 03:52:01;;;;;;;6.78;3.88;;;7.10;99.90;;;;;;6066326;23;20027;-82
2024/02/19 03:54:49;;;;;;;3.33;3.03;;;7.10;99.90;;;;;;6052043;23;20057;-79
2024/02/19 03:57:41;;;;;;;4.07;3.05;;;7.10;99.90;;;;;;6053441;23;20142;-79
2024/02/19 04:00:30;;;;;;;3.15;2.85;;;7.10;99.90;;;;;;6071376;23;20038;-78
2024/02/19 04:03:19;;;;;;;3.63;2.70;;;7.10;99.90;;;;;;6067048;23;20037;-81
2024/02/19 04:06:10;;;;;;;3.22;2.92;;;7.10;99.90;;;;;;6070915;23;20035;-80
2024/02/19 04:08:59;;;;;;;3.42;2.97;;;7.10;99.90;;;;;;6064932;23;20113;-80
2024/02/19 04:11:46;;;;;;;5.32;3.30;;;7.10;99.90;;;;;;6058828;23;20034;-81
2024/02/19 04:14:38;;;;;;;6.88;4.00;;;7.10;99.90;;;;;;6059189;23;20219;-81
2024/02/19 04:17:27;;;;;;;7.85;4.45;;;7.10;99.90;;;;;;6058390;23;20030;-80
2024/02/19 04:20:17;;;;;;;6.35;4.20;;;7.10;99.90;;;;;;6060405;23;20030;-81
2024/02/19 04:23:05;;;;;;;5.13;3.97;;;7.20;99.90;;;;;;6038502;23;20086;-82
2024/02/19 04:25:55;;;;;;;8.57;4.95;;;7.20;99.90;;;;;;6061531;23;20033;-84
2024/02/19 04:28:53;;;;;;;8.38;4.78;;;7.20;99.90;;;;;;6057780;23;20501;-83
2024/02/19 04:31:50;;;;;;;8.45;4.93;;;7.20;99.90;;;;;;6057753;23;20031;-83
2024/02/19 04:34:40;;;;;;;17.13;6.05;;;7.30;99.90;;;;;;6058966;23;20035;-82
2024/02/19 04:37:30;;;;;;;11.07;5.40;;;7.30;99.90;;;;;;6057395;23;20141;-83
2024/02/19 04:40:19;;;;;;;10.13;5.55;;;7.30;99.90;;;;;;6038380;23;20078;-80
2024/02/19 04:43:07;;;;;;;10.23;5.57;;;7.30;99.90;;;;;;6058218;23;20374;-83
2024/02/19 04:45:56;;;;;;;16.63;6.05;;;7.30;99.90;;;;;;6049531;23;20158;-81
2024/02/19 04:48:48;;;;;;;9.02;5.38;;;7.40;99.90;;;;;;6055922;23;20045;-82
2024/02/19 04:51:38;;;;;;;9.77;5.47;;;7.30;99.90;;;;;;6065361;23;20074;-82
2024/02/19 04:54:31;;;;;;;13.50;5.30;;;7.30;99.90;;;;;;6051018;23;20037;-84
2024/02/19 04:57:19;;;;;;;11.70;6.00;;;7.40;99.90;;;;;;6063073;23;20114;-80
2024/02/19 05:00:08;;;;;;;10.55;6.25;;;7.30;99.90;;;;;;6069222;23;20023;-81
2024/02/19 05:02:58;;;;;;;14.73;6.35;;;7.30;99.90;;;;;;6062573;23;20026;-79
2024/02/19 05:05:46;;;;;;;12.35;6.22;;;7.20;99.90;;;;;;6061019;23;20376;-80
2024/02/19 05:08:34;;;;;;;15.23;7.15;;;7.20;99.90;;;;;;6058883;23;20046;-81
2024/02/19 05:11:25;;;;;;;12.50;6.60;;;7.10;99.90;;;;;;6037473;23;20026;-84
2024/02/19 05:14:15;;;;;;;13.43;7.40;;;7.10;99.90;;;;;;6057601;23;20037;-80
2024/02/19 05:17:03;;;;;;;15.93;7.70;;;7.00;99.90;;;;;;6035276;23;20031;-81
2024/02/19 05:19:51;;;;;;;15.52;8.10;;;7.00;99.90;;;;;;6038297;23;20046;-81
2024/02/19 05:22:40;;;;;;;14.15;8.00;;;7.00;99.90;;;;;;6057118;23;20426;-81
2024/02/19 05:25:28;;;;;;;15.20;8.68;;;7.10;99.90;;;;;;6059201;23;20035;-81
2024/02/19 05:28:19;;;;;;;12.57;7.72;;;7.10;99.90;;;;;;6063248;23;20026;-79
2024/02/19 05:31:07;;;;;;;15.30;8.27;;;7.10;99.90;;;;;;6038910;23;20109;-78
2024/02/19 05:33:54;;;;;;;13.02;8.32;;;7.10;99.90;;;;;;6063189;23;20023;-79
2024/02/19 05:36:42;;;;;;;14.93;7.70;;;7.20;99.90;;;;;;6066706;23;20101;-81
2024/02/19 05:39:30;;;;;;;13.32;7.20;;;7.10;99.90;;;;;;6046091;23;20030;-79
2024/02/19 05:42:17;;;;;;;13.73;7.60;;;7.10;99.90;;;;;;6055688;23;20042;-79
2024/02/19 05:45:06;;;;;;;13.20;7.38;;;7.10;99.90;;;;;;6060486;23;20051;-80
2024/02/19 05:47:54;;;;;;;15.48;8.20;;;7.10;99.90;;;;;;6079193;23;20027;-79
2024/02/19 05:50:42;;;;;;;16.05;7.60;;;7.00;99.90;;;;;;6076971;23;20029;-77
2024/02/19 05:53:30;;;;;;;16.83;8.02;;;6.90;99.90;;;;;;6056944;23;20023;-79
2024/02/19 05:56:21;;;;;;;12.45;7.78;;;6.90;99.90;;;;;;6052023;23;20061;-80
2024/02/19 05:59:09;;;;;;;9.98;6.45;;;6.80;99.90;;;;;;6063487;23;20087;-77
2024/02/19 06:01:57;;;;;;;14.55;8.20;;;6.80;99.90;;;;;;6063388;23;20033;-79
2024/02/19 06:04:45;;;;;;;15.85;8.18;;;6.80;99.90;;;;;;6065981;23;20514;-79
2024/02/19 06:07:32;;;;;;;18.70;8.82;;;6.80;99.90;;;;;;6062906;23;20407;-79
2024/02/19 06:10:20;;;;;;;15.63;8.85;;;6.80;99.90;;;;;;6064641;23;20630;-78
2024/02/19 06:13:08;;;;;;;18.25;8.73;;;6.90;99.90;;;;;;6044856;23;20407;-82
2024/02/19 06:15:56;;;;;;;15.85;8.43;;;6.90;99.90;;;;;;6039865;23;20037;-81
2024/02/19 06:18:44;;;;;;;17.98;9.02;;;6.90;99.90;;;;;;6076895;23;20098;-80
2024/02/19 06:21:32;;;;;;;19.45;9.48;;;6.80;99.90;;;;;;6062591;23;20059;-82
2024/02/19 06:24:19;;;;;;;15.48;8.65;;;6.80;99.90;;;;;;6059399;23;20026;-80
2024/02/19 06:27:07;;;;;;;19.10;9.32;;;6.80;99.90;;;;;;6084458;23;20027;-81
2024/02/19 06:29:55;;;;;;;17.02;9.25;;;6.80;99.90;;;;;;6078548;23;20030;-80
2024/02/19 06:32:45;;;;;;;26.25;9.27;;;6.80;99.90;;;;;;6057864;23;20031;-80
2024/02/19 06:35:33;;;;;;;21.23;8.40;;;6.70;99.90;;;;;;6078355;23;20107;-83
2024/02/19 06:38:21;;;;;;;23.23;8.55;;;6.70;99.90;;;;;;6063165;23;20035;-81
2024/02/19 06:41:08;;;;;;;14.50;7.30;;;6.70;99.90;;;;;;6066396;23;20095;-80
2024/02/19 06:43:59;;;;;;;17.60;7.82;;;6.60;99.90;;;;;;6075886;23;20098;-82
2024/02/19 06:46:48;;;;;;;23.25;7.88;;;6.60;99.90;;;;;;6075350;23;20027;-78
2024/02/19 06:49:36;;;;;;;19.42;7.25;;;6.60;99.90;;;;;;6083006;23;20034;-79
2024/02/19 06:52:26;;;;;;;24.73;8.18;;;6.60;99.90;;;;;;6071694;23;20034;-76
2024/02/19 06:55:15;;;;;;;15.07;6.82;;;6.60;99.90;;;;;;6055438;23;20035;-78
2024/02/19 06:58:03;;;;;;;15.43;7.20;;;6.60;99.90;;;;;;6054830;23;20027;-78
2024/02/19 07:00:51;;;;;;;19.17;7.30;;;6.60;99.90;;;;;;6036148;23;20034;-78
2024/02/19 07:03:38;;;;;;;15.90;7.45;;;6.60;99.90;;;;;;6060245;23;20038;-78
2024/02/19 07:06:26;;;;;;;14.50;6.32;;;6.60;99.90;;;;;;6065182;23;20413;-79
2024/02/19 07:09:14;;;;;;;19.65;6.18;;;6.60;99.90;;;;;;6060512;23;20058;-80
2024/02/19 07:12:02;;;;;;;11.68;6.20;;;6.60;99.90;;;;;;6056668;23;20474;-79
2024/02/19 07:14:50;;;;;;;11.85;6.05;;;6.70;99.90;;;;;;6067578;23;20030;-78
2024/02/19 07:17:38;;;;;;;16.52;5.63;;;6.70;99.90;;;;;;6060465;23;20045;-77
2024/02/19 07:20:26;;;;;;;12.23;5.25;;;6.70;99.90;;;;;;6038184;23;20027;-80
2024/02/19 07:23:13;;;;;;;14.95;5.15;;;6.70;99.90;;;;;;6069502;23;20082;-79
2024/02/19 07:26:00;;;;;;;13.27;4.20;;;6.70;99.90;;;;;;6060733;23;20026;-80
2024/02/19 07:28:49;;;;;;;10.75;3.80;;;6.70;99.90;;;;;;6016600;23;20033;-79
2024/02/19 07:31:42;;;;;;;7.63;3.45;;;6.70;99.90;;;;;;6055245;23;20031;-78
2024/02/19 07:34:33;;;;;;;9.55;3.70;;;6.70;99.90;;;;;;6041338;23;20581;-79
2024/02/19 07:37:29;;;;;;;10.00;3.55;;;6.80;99.90;;;;;;6062966;23;20023;-79
2024/02/19 07:40:16;;;;;;;14.27;3.20;;;6.80;99.90;;;;;;6059085;23;20110;-78
2024/02/19 07:43:07;;;;;;;6.90;3.25;;;6.80;99.90;;;;;;6040707;23;20042;-79
2024/02/19 07:45:56;;;;;;;6.95;2.67;;;6.80;99.90;;;;;;6061851;23;20027;-79
2024/02/19 07:48:43;;;;;;;4.88;2.67;;;6.90;99.90;;;;;;6043832;23;20023;-77
2024/02/19 07:51:31;;;;;;;6.68;3.30;;;6.90;99.90;;;;;;6046485;23;20030;-77
2024/02/19 07:54:21;;;;;;;7.10;2.53;;;6.80;99.90;;;;;;6063575;23;20034;-80
2024/02/19 07:57:12;;;;;;;5.55;2.45;;;6.80;99.90;;;;;;6067179;23;20030;-78
2024/02/19 08:00:00;;;;;;;6.57;2.65;;;6.70;99.90;;;;;;6055375;23;20023;-78
2024/02/19 08:02:48;;;;;;;10.65;2.70;;;6.70;99.90;;;;;;6034495;23;20026;-79
2024/02/19 08:05:40;;;;;;;4.60;2.40;;;6.70;1.00;;;;;;6057339;23;20027;-81
2024/02/19 08:08:31;;;;;;;4.65;1.90;;;6.80;1.00;;;;;;6037166;23;20031;-79
2024/02/19 08:11:21;;;;;;;8.90;2.20;;;7.00;1.00;;;;;;6056881;23;20059;-79
2024/02/19 08:14:12;;;;;;;7.03;2.20;;;7.20;99.90;;;;;;6059194;23;20034;-79
2024/02/19 08:17:00;;;;;;;7.18;2.63;;;7.30;99.90;;;;;;6058881;23;20027;-77
2024/02/19 08:19:48;;;;;;;6.32;3.17;;;7.40;1.00;;;;;;6035664;23;20041;-79
2024/02/19 08:22:38;;;;;;;6.90;2.95;;;7.50;27.60;;;;;;6052579;23;20056;-78
2024/02/19 08:25:27;;;;;;;10.05;3.13;;;7.60;99.90;;;;;;6052593;23;20027;-79
2024/02/19 08:28:15;;;;;;;4.72;2.25;;;7.80;99.90;;;;;;6053824;23;20121;-76
2024/02/19 08:31:06;;;;;;;4.47;1.50;;;7.90;1.00;;;;;;6057901;23;20533;-79
2024/02/19 08:33:57;;;;;;;2.40;1.33;;;8.00;99.90;;;;;;6053450;23;20030;-79
2024/02/19 08:36:44;;;;;;;6.80;1.52;;;8.10;1.00;;;;;;6033319;23;20058;-77
2024/02/19 08:39:34;;;;;;;4.30;1.45;;;8.10;99.90;;;;;;6063272;23;20026;-79
2024/02/19 08:42:22;;;;;;;3.95;1.55;;;8.10;20.40;;;;;;6057889;23;20023;-78
2024/02/19 08:45:12;;;;;;;4.85;1.65;;;8.10;1.00;;;;;;6057043;23;20035;-78
2024/02/19 08:48:01;;;;;;;7.28;1.67;;;8.20;99.90;;;;;;6052104;23;20074;-77
2024/02/19 08:50:52;;;;;;;3.17;1.50;;;8.10;99.90;;;;;;6037023;23;20565;-77
2024/02/19 08:53:42;;;;;;;6.28;3.80;;;8.20;99.90;;;;;;6052923;23;20721;-78
2024/02/19 08:56:36;;;;;;;4.50;1.60;;;8.30;99.90;;;;;;6052668;23;20058;-78
2024/02/19 08:59:23;;;;;;;7.32;1.77;;;8.30;27.40;;;;;;6052066;23;20037;-79
2024/02/19 09:02:13;;;;;;;6.40;1.90;;;8.30;1.00;;;;;;6057045;23;20074;-81
2024/02/19 09:05:04;;;;;;;4.70;1.38;;;8.40;1.00;;;;;;6057503;23;20033;-80
2024/02/19 09:07:56;;;;;;;2.30;1.08;;;8.40;1.00;;;;;;6036276;23;20031;-80
2024/02/19 09:10:44;;;;;;;3.97;1.23;;;8.30;99.90;;;;;;6066820;23;20242;-79
2024/02/19 09:13:35;;;;;;;2.72;1.38;;;8.30;99.90;;;;;;6068744;23;20059;-79
2024/02/19 09:16:28;;;;;;;4.63;1.50;;;8.30;99.90;;;;;;6056048;23;20454;-79
2024/02/19 09:19:18;;;;;;;4.43;1.40;;;8.30;99.90;;;;;;6036677;23;20050;-79
2024/02/19 09:22:07;;;;;;;2.72;1.40;;;8.20;99.90;;;;;;6057405;23;20486;-79
2024/02/19 09:24:56;;;;;;;4.18;1.00;;;8.30;99.90;;;;;;6058202;23;20027;-77
2024/02/19 09:27:44;;;;;;;2.55;1.80;;;8.30;99.90;;;;;;6063885;23;20182;-79
2024/02/19 09:30:33;;;;;;;3.00;1.42;;;8.50;99.90;;;;;;6047176;23;20034;-80
2024/02/19 09:33:23;;;;;;;2.40;1.17;;;8.60;99.90;;;;;;6045315;23;20359;-79
2024/02/19 09:36:17;;;;;;;2.63;1.00;;;8.60;84.00;;;;;;6060749;23;20341;-81
2024/02/19 09:39:06;;;;;;;4.47;1.20;;;8.60;32.80;;;;;;6035659;23;20478;-80
2024/02/19 09:41:54;;;;;;;3.20;1.10;;;8.60;29.50;;;;;;6053433;23;20027;-80
2024/02/19 09:44:45;;;;;;;8.88;2.63;;;8.70;1.00;;;;;;6061075;23;20031;-78
2024/02/19 09:47:33;;;;;;;2.78;1.33;;;8.70;1.00;;;;;;6062621;23;20114;-78
2024/02/19 09:50:23;;;;;;;5.43;1.70;;;8.70;1.00;;;;;;6064033;23;20050;-77
2024/02/19 09:53:15;;;;;;;3.03;1.25;;;8.70;1.00;;;;;;6052703;23;20034;-80
2024/02/19 09:56:03;;;;;;;5.65;1.65;;;8.80;1.00;;;;;;6054088;23;20030;-77
2024/02/19 09:58:50;;;;;;;6.68;2.63;;;8.70;1.00;;;;;;6055033;23;20050;-78
2024/02/19 10:01:39;;;;;;;3.67;1.88;;;8.60;1.00;;;;;;6035175;23;20037;-77
2024/02/19 10:04:27;;;;;;;6.40;1.65;;;8.70;1.00;;;;;;6059608;23;20550;-78
2024/02/19 10:07:18;;;;;;;4.32;1.60;;;8.70;1.00;;;;;;6067806;23;20038;-78
2024/02/19 10:10:10;;;;;;;6.45;2.70;;;8.70;1.00;;;;;;6034673;23;20035;-76
2024/02/19 10:12:57;;;;;;;4.72;1.90;;;8.70;1.00;;;;;;6067397;23;20026;-79
2024/02/19 10:15:45;;;;;;;4.20;1.70;;;8.70;1.00;;;;;;6076033;23;20589;-79
2024/02/19 10:18:33;;;;;;;8.73;1.75;;;8.80;1.00;;;;;;6065420;23;20027;-76
2024/02/19 10:21:23;;;;;;;7.55;2.08;;;8.70;1.00;;;;;;6067018;23;20027;-80
2024/02/19 10:24:17;;;;;;;6.32;2.15;;;8.70;1.00;;;;;;6057708;23;20031;-78
2024/02/19 10:27:10;;;;;;;7.40;1.65;;;8.70;1.00;;;;;;6055564;23;20079;-79
2024/02/19 10:29:59;;;;;;;4.80;1.50;;;8.70;1.00;;;;;;6046280;23;20031;-77
2024/02/19 10:32:49;;;;;;;6.57;1.80;;;8.70;1.00;;;;;;6058392;23;20077;-80
2024/02/19 10:35:36;;;;;;;5.43;1.95;;;8.70;1.00;;;;;;6056939;23;20045;-80
2024/02/19 10:38:24;;;;;;;8.23;2.13;;;8.70;1.00;;;;;;6055737;23;20462;-80
2024/02/19 10:41:13;;;;;;;5.65;1.88;;;8.70;1.00;;;;;;6033297;23;20463;-78
2024/02/19 10:44:05;;;;;;;7.78;1.92;;;8.70;1.00;;;;;;6037092;23;20075;-80
2024/02/19 10:47:13;;;;;;;8.93;2.22;;;8.70;1.00;;;;;;6054090;23;20027;-78
2024/02/19 10:50:04;;;;;;;5.03;1.75;;;8.80;99.90;;;;;;6062458;23;20059;-80
2024/02/19 10:52:52;;;;;;;10.50;1.88;;;8.80;99.90;;;;;;6059041;23;20359;-80
2024/02/19 10:55:42;;;;;;;6.43;1.70;;;8.80;99.90;;;;;;6037635;23;20751;-78
2024/02/19 10:58:54;;;;;;;5.40;1.60;;;9.00;99.90;;;;;;6055629;23;20031;-82
2024/02/19 11:01:50;;;;;;;4.07;1.50;;;9.20;1.00;;;;;;6062673;23;20041;-79
2024/02/19 11:04:39;;;;;;;6.07;1.80;;;9.20;1.00;;;;;;6057187;23;20366;-80
2024/02/19 11:07:32;;;;;;;9.20;1.48;;;9.30;99.90;;;;;;6054974;23;20034;-78
2024/02/19 11:10:22;;;;;;;6.95;1.60;;;9.40;1.00;;;;;;6034317;23;20115;-78
2024/02/19 11:13:12;;;;;;;6.18;1.55;;;9.50;99.90;;;;;;6057789;23;20026;-78
2024/02/19 11:16:03;;;;;;;3.53;1.45;;;9.30;1.00;;;;;;6055804;23;20034;-80
2024/02/19 11:18:59;;;;;;;5.03;1.70;;;9.40;1.00;;;;;;6035124;23;20370;-77
2024/02/19 11:21:47;;;;;;;3.70;1.60;;;9.60;1.00;;;;;;6060507;23;20030;-79
2024/02/19 11:24:39;;;;;;;7.50;1.65;;;9.70;1.00;;;;;;6067346;23;20371;-78
2024/02/19 11:27:30;;;;;;;11.88;1.88;;;9.80;1.00;;;;;;6031030;23;20042;-78
2024/02/19 11:30:19;;;;;;;6.38;2.30;;;9.90;1.00;;;;;;6063885;23;20378;-78
2024/02/19 11:33:09;;;;;;;6.60;1.92;;;10.00;1.00;;;;;;6066587;23;20094;-79
2024/02/19 11:35:57;;;;;;;3.70;1.42;;;10.00;99.90;;;;;;6037080;23;20038;-80
2024/02/19 11:38:46;;;;;;;6.55;1.83;;;10.40;99.90;;;;;;6055230;23;20031;-80
2024/02/19 11:41:37;;;;;;;5.72;1.50;;;10.90;1.00;;;;;;6060905;23;20038;-80
2024/02/19 11:44:25;;;;;;;4.03;1.80;;;11.20;1.00;;;;;;6035527;23;20027;-80
2024/02/19 11:47:17;;;;;;;4.38;1.48;;;11.30;99.90;;;;;;6055185;23;20041;-79
2024/02/19 11:50:10;;;;;;;5.40;1.40;;;11.10;1.00;;;;;;6060401;23;20113;-79
2024/02/19 11:52:58;;;;;;;4.07;1.60;;;10.70;80.60;;;;;;6038904;23;20031;-79
2024/02/19 11:55:47;;;;;;;3.70;1.40;;;10.60;99.90;;;;;;6070862;23;20037;-78
2024/02/19 11:58:41;;;;;;;7.00;1.70;;;10.30;99.90;;;;;;6058965;23;20041;-79
2024/02/19 12:01:28;;;;;;;6.20;1.92;;;10.20;99.90;;;;;;6036473;23;20515;-78
2024/02/19 12:04:17;;;;;;;5.97;1.80;;;10.00;99.90;;;;;;6056429;23;20034;-81
2024/02/19 12:07:11;;;;;;;5.45;1.70;;;10.00;1.00;;;;;;6056612;23;20109;-79
2024/02/19 12:09:59;;;;;;;4.50;1.63;;;10.20;99.90;;;;;;6057848;23;20495;-78
2024/02/19 12:12:49;;;;;;;7.72;1.50;;;10.40;99.90;;;;;;6070299;23;20088;-78
2024/02/19 12:15:52;;;;;;;4.55;1.75;;;10.40;99.90;;;;;;6060324;23;20031;-78
2024/02/19 12:18:41;;;;;;;4.90;1.33;;;10.30;99.90;;;;;;6070052;23;20027;-78
2024/02/19 12:21:32;;;;;;;6.45;1.65;;;10.10;99.90;;;;;;6070820;23;20031;-77
2024/02/19 12:24:20;;;;;;;4.60;1.58;;;10.00;99.90;;;;;;6071805;23;20082;-76
2024/02/19 12:27:08;;;;;;;3.95;1.67;;;9.80;99.90;;;;;;6089972;23;20046;-78
2024/02/19 12:29:57;;;;;;;8.90;1.92;;;9.60;99.90;;;;;;6081512;23;20053;-76
2024/02/19 12:32:45;;;;;;;9.32;2.50;;;9.40;99.90;;;;;;6061465;23;20126;-78
2024/02/19 12:35:33;;;;;;;7.38;1.92;;;9.20;56.10;;;;;;6035878;23;20106;-80
2024/02/19 12:38:23;;;;;;;5.57;1.92;;;9.20;89.30;;;;;;6057634;23;20026;-80
2024/02/19 12:41:18;;;;;;;7.47;2.05;;;9.20;99.90;;;;;;6055662;23;20026;-79
2024/02/19 12:44:05;;;;;;;6.18;2.15;;;9.30;99.90;;;;;;6057395;23;20101;-79
2024/02/19 12:46:55;;;;;;;7.93;2.20;;;9.40;99.90;;;;;;6055995;23;20486;-79
2024/02/19 12:49:42;;;;;;;4.35;1.50;;;9.80;1.00;;;;;;6057534;23;20075;-79
2024/02/19 12:52:32;;;;;;;5.75;1.80;;;10.60;1.00;;;;;;6058301;23;20110;-79
2024/02/19 12:55:20;;;;;;;6.35;1.50;;;11.70;1.00;;;;;;6061095;23;20059;-79
2024/02/19 12:58:07;;;;;;;8.38;1.70;;;12.20;99.90;;;;;;6037487;23;20417;-80
2024/02/19 13:00:58;;;;;;;8.70;1.63;;;12.40;99.90;;;;;;6061624;23;20085;-80
2024/02/19 13:03:54;;;;;;;6.13;2.20;;;12.30;99.90;;;;;;6066002;23;20027;-77
2024/02/19 13:06:45;;;;;;;6.40;2.00;;;12.30;99.90;;;;;;6066947;23;20155;-79
2024/02/19 13:09:36;;;;;;;3.92;1.60;;;12.00;85.00;;;;;;6050656;23;20616;-79
2024/02/19 13:12:24;;;;;;;12.98;1.90;;;11.90;22.30;;;;;;6067132;23;20709;-79
2024/02/19 13:15:13;;;;;;;6.00;1.80;;;11.80;94.50;;;;;;6061884;23;20031;-80
2024/02/19 13:18:00;;;;;;;6.18;2.22;;;11.70;71.70;;;;;;6059569;23;20031;-79
2024/02/19 13:20:48;;;;;;;10.25;2.15;;;11.70;23.60;;;;;;6064216;23;20030;-79
2024/02/19 13:23:37;;;;;;;7.32;1.75;;;11.20;99.90;;;;;;6056837;23;20030;-78
2024/02/19 13:26:25;;;;;;;9.50;2.35;;;10.70;99.90;;;;;;6035918;23;20034;-78
2024/02/19 13:29:14;;;;;;;6.60;2.22;;;10.20;25.50;;;;;;6059052;23;20078;-79
2024/02/19 13:32:05;;;;;;;7.20;2.55;;;10.10;99.90;;;;;;6064000;23;20015;-79
2024/02/19 13:34:52;;;;;;;7.53;1.75;;;9.90;1.00;;;;;;6075443;23;20010;-77
2024/02/19 13:37:44;;;;;;;6.32;1.85;;;9.90;1.00;;;;;;6073473;23;20029;-78
2024/02/19 13:40:34;;;;;;;8.90;2.35;;;9.90;1.00;;;;;;6037149;23;20101;-78
2024/02/19 13:43:22;;;;;;;5.68;2.05;;;10.00;99.90;;;;;;6056059;23;20026;-80
2024/02/19 13:46:17;;;;;;;11.75;3.03;;;10.20;99.90;;;;;;6061032;23;20035;-78
2024/02/19 13:49:06;;;;;;;9.85;2.22;;;10.30;99.90;;;;;;6055610;23;20031;-81
2024/02/19 13:51:57;;;;;;;7.03;2.03;;;10.20;99.90;;;;;;6056373;23;20059;-78
2024/02/19 13:54:48;;;;;;;6.60;2.17;;;10.10;99.90;;;;;;6068704;23;20041;-79
2024/02/19 13:57:44;;;;;;;8.55;2.00;;;10.20;99.90;;;;;;6049556;23;20166;-79
2024/02/19 14:00:33;;;;;;;10.10;2.08;;;10.20;99.90;;;;;;6046547;23;20295;-79
2024/02/19 14:03:22;;;;;;;9.88;2.45;;;10.20;99.90;;;;;;6043389;23;20030;-79
2024/02/19 14:06:13;;;;;;;12.32;2.58;;;10.10;99.90;;;;;;6065469;23;20109;-79
2024/02/19 14:09:04;;;;;;;8.13;2.20;;;10.00;99.90;;;;;;6057131;23;20109;-79
2024/02/19 14:11:56;;;;;;;9.15;2.25;;;10.00;99.90;;;;;;6064533;23;20175;-79
2024/02/19 14:14:46;;;;;;;12.77;2.75;;;9.90;99.90;;;;;;6036836;23;20034;-77
2024/02/19 14:17:34;;;;;;;9.23;2.30;;;9.80;99.90;;;;;;6055059;23;20514;-78
2024/02/19 14:20:24;;;;;;;11.85;2.88;;;9.70;99.90;;;;;;6058660;23;20453;-79
2024/02/19 14:23:12;;;;;;;8.85;2.05;;;9.60;99.90;;;;;;6056178;23;20737;-77
2024/02/19 14:26:02;;;;;;;7.65;2.58;;;9.60;99.90;;;;;;6065949;23;20023;-79
2024/02/19 14:28:54;;;;;;;9.50;2.72;;;9.60;99.90;;;;;;6035891;23;20029;-79
2024/02/19 14:31:43;;;;;;;6.90;2.60;;;9.70;99.90;;;;;;6045929;23;20034;-78
2024/02/19 14:34:32;;;;;;;14.05;3.38;;;9.80;99.90;;;;;;6074489;23;20034;-77
2024/02/19 14:37:20;;;;;;;12.80;3.80;;;9.90;99.90;;;;;;6075884;23;20059;-77
2024/02/19 14:40:16;;;;;;;10.00;3.63;;;9.90;99.90;;;;;;6062294;23;20042;-79
2024/02/19 14:43:04;;;;;;;6.88;3.00;;;10.00;99.90;;;;;;6058798;23;20118;-75
2024/02/19 14:45:53;;;;;;;9.70;3.63;;;10.00;99.90;;;;;;6056377;23;20481;-79
2024/02/19 14:48:45;;;;;;;7.10;3.20;;;10.00;99.90;;;;;;6056501;23;20094;-75
2024/02/19 14:51:36;;;;;;;7.82;3.10;;;9.90;99.90;;;;;;6069037;23;20496;-78